Time;durP1;ratioP1;P1;durP2;ratioP2;P2;SDS_P1;SDS_P2;PMS_P1;PMS_P2;Temp;Humidity;BMP_temperature;BMP_pressure;BME280_temperature;BME280_humidity;BME280_pressure;Samples;Min_cycle;Max_cycle;Signal;HPM_P1;HPM_P2
2021/07/24 00:01:30;;;;;;;17.90;15.13;;;20.60;68.90;;;;;;4930701;29;20460;-43
2021/07/24 00:03:57;;;;;;;19.53;14.03;;;20.60;68.90;;;;;;4925954;29;20516;-42
2021/07/24 00:06:42;;;;;;;18.13;15.33;;;20.60;69.00;;;;;;4928516;29;20558;-42
2021/07/24 00:09:09;;;;;;;17.20;14.80;;;20.60;69.00;;;;;;4930998;29;20466;-43
2021/07/24 00:11:36;;;;;;;16.67;14.93;;;20.60;69.00;;;;;;4920250;29;20569;-43
2021/07/24 00:14:02;;;;;;;16.07;13.40;;;20.60;69.10;;;;;;4924643;29;20555;-42
2021/07/24 00:16:29;;;;;;;19.50;14.03;;;20.50;69.10;;;;;;4924774;29;20468;-42
2021/07/24 00:18:56;;;;;;;39.67;14.40;;;20.50;69.10;;;;;;4920903;29;20461;-41
2021/07/24 00:21:23;;;;;;;17.87;13.70;;;20.50;69.30;;;;;;4927254;29;20967;-43
2021/07/24 00:23:50;;;;;;;18.87;14.23;;;20.50;69.40;;;;;;4928967;29;20458;-41
2021/07/24 00:26:17;;;;;;;14.10;12.57;;;20.50;69.30;;;;;;4927834;29;20494;-41
2021/07/24 00:28:43;;;;;;;16.30;13.37;;;20.40;69.50;;;;;;4930402;29;20456;-43
2021/07/24 00:31:10;;;;;;;15.73;13.53;;;20.40;69.60;;;;;;4925675;29;20539;-43
2021/07/24 00:33:37;;;;;;;18.77;14.20;;;20.30;69.70;;;;;;4926631;29;20452;-44
2021/07/24 00:36:04;;;;;;;16.00;13.10;;;20.30;69.80;;;;;;4928032;29;20504;-42
2021/07/24 00:38:32;;;;;;;15.87;12.97;;;20.30;70.00;;;;;;4930172;29;20475;-42
2021/07/24 00:41:07;;;;;;;13.97;12.17;;;20.30;70.20;;;;;;4925789;29;20475;-42
2021/07/24 00:43:35;;;;;;;16.60;13.83;;;20.30;70.30;;;;;;4924848;29;20478;-43
2021/07/24 00:46:04;;;;;;;21.03;14.00;;;20.20;70.40;;;;;;4928904;29;20578;-42
2021/07/24 00:48:34;;;;;;;15.37;12.63;;;20.20;70.40;;;;;;4925474;29;20464;-41
2021/07/24 00:51:01;;;;;;;20.20;13.53;;;20.20;70.40;;;;;;4925039;29;20498;-43
2021/07/24 00:53:35;;;;;;;15.27;13.40;;;20.20;70.40;;;;;;4926547;29;20464;-42
2021/07/24 00:56:04;;;;;;;16.10;13.47;;;20.20;70.50;;;;;;4933081;29;20534;-43
2021/07/24 00:58:37;;;;;;;16.93;13.90;;;20.20;70.60;;;;;;4926495;29;21310;-42
2021/07/24 01:01:05;;;;;;;17.63;13.93;;;20.10;70.70;;;;;;4928258;29;20471;-43
2021/07/24 01:03:33;;;;;;;14.57;13.07;;;20.10;70.80;;;;;;4930480;29;20463;-43
2021/07/24 01:06:00;;;;;;;16.83;12.50;;;20.10;70.80;;;;;;4930851;29;21009;-42
2021/07/24 01:08:31;;;;;;;17.23;13.20;;;20.10;70.80;;;;;;4930376;29;20809;-42
2021/07/24 01:10:58;;;;;;;15.70;13.50;;;20.10;71.00;;;;;;4931037;29;21056;-42
2021/07/24 01:13:25;;;;;;;15.60;13.93;;;20.10;70.90;;;;;;4928475;29;21013;-43
2021/07/24 01:15:52;;;;;;;16.00;13.30;;;20.10;71.20;;;;;;4922966;29;20938;-42
2021/07/24 01:18:20;;;;;;;16.80;13.90;;;20.10;71.30;;;;;;4925645;29;21039;-41
2021/07/24 01:20:48;;;;;;;18.57;13.20;;;20.10;71.40;;;;;;4930114;29;21034;-43
2021/07/24 01:23:17;;;;;;;19.23;14.80;;;20.10;71.50;;;;;;4927489;29;20459;-42
2021/07/24 01:25:49;;;;;;;17.00;14.67;;;20.00;71.40;;;;;;4926777;29;20499;-42
2021/07/24 01:28:26;;;;;;;15.03;13.40;;;20.00;71.50;;;;;;4930793;29;20468;-41
2021/07/24 01:30:54;;;;;;;15.53;13.40;;;20.00;71.60;;;;;;4926287;29;20548;-42
2021/07/24 01:33:21;;;;;;;14.63;13.07;;;20.00;71.60;;;;;;4925619;29;20473;-42
2021/07/24 01:35:49;;;;;;;20.73;14.83;;;20.00;71.70;;;;;;4926710;29;20980;-42
2021/07/24 01:38:17;;;;;;;14.90;13.10;;;20.00;71.80;;;;;;4932438;29;20485;-43
2021/07/24 01:40:45;;;;;;;21.63;14.37;;;20.00;71.90;;;;;;4928016;29;20715;-43
2021/07/24 01:43:11;;;;;;;15.80;14.10;;;20.00;72.00;;;;;;4925076;29;20470;-43
2021/07/24 01:45:39;;;;;;;17.00;13.60;;;20.00;72.00;;;;;;4926339;29;20518;-41
2021/07/24 01:48:14;;;;;;;15.37;13.73;;;20.00;72.00;;;;;;4930196;29;20458;-43
2021/07/24 01:53:32;;;;;;;16.93;13.27;;;20.00;72.10;;;;;;4926186;29;20463;-43
2021/07/24 01:56:09;;;;;;;13.70;12.10;;;20.00;72.20;;;;;;4930453;29;20465;-42
2021/07/24 01:58:37;;;;;;;13.07;11.67;;;20.00;72.20;;;;;;4927188;29;20470;-41
2021/07/24 02:01:07;;;;;;;16.03;14.23;;;20.00;72.20;;;;;;4930772;29;20467;-43
2021/07/24 02:03:40;;;;;;;16.70;13.80;;;20.00;72.20;;;;;;4927831;29;20496;-42
2021/07/24 02:06:12;;;;;;;15.33;13.53;;;20.00;71.80;;;;;;4928390;29;20567;-42
2021/07/24 02:08:45;;;;;;;16.40;12.90;;;20.00;71.90;;;;;;4929222;29;21035;-42
2021/07/24 02:11:12;;;;;;;17.27;13.20;;;20.00;72.10;;;;;;4925245;29;20460;-43
2021/07/24 02:13:39;;;;;;;16.77;12.20;;;20.10;72.20;;;;;;4926521;29;21557;-43
2021/07/24 02:16:06;;;;;;;13.90;10.97;;;20.10;72.20;;;;;;4925974;29;20835;-42
2021/07/24 02:18:35;;;;;;;16.30;12.73;;;20.10;72.20;;;;;;4928784;29;20471;-41
2021/07/24 02:21:02;;;;;;;18.73;12.70;;;20.10;72.20;;;;;;4931874;29;20483;-42
2021/07/24 02:23:29;;;;;;;16.47;12.70;;;20.10;72.00;;;;;;4928055;29;20484;-42
2021/07/24 02:25:56;;;;;;;15.17;13.30;;;20.10;72.00;;;;;;4931054;29;21150;-43
2021/07/24 02:28:22;;;;;;;15.20;11.97;;;20.10;72.00;;;;;;4929652;29;20456;-43
2021/07/24 02:30:49;;;;;;;22.70;12.13;;;20.10;72.00;;;;;;4929808;29;20460;-41
2021/07/24 02:33:17;;;;;;;14.27;11.47;;;20.10;72.00;;;;;;4927764;29;20465;-42
2021/07/24 02:35:49;;;;;;;15.00;12.50;;;20.20;72.10;;;;;;4929449;29;20526;-42
2021/07/24 02:38:17;;;;;;;15.30;12.70;;;20.20;72.00;;;;;;4928242;29;20546;-42
2021/07/24 02:40:43;;;;;;;16.90;13.10;;;20.20;72.00;;;;;;4931760;29;20507;-42
2021/07/24 02:43:10;;;;;;;14.97;11.90;;;20.20;72.00;;;;;;4927727;29;20460;-43
2021/07/24 02:45:37;;;;;;;13.27;11.73;;;20.20;72.00;;;;;;4927599;29;20496;-43
2021/07/24 02:48:07;;;;;;;16.23;12.47;;;20.20;72.00;;;;;;4932837;29;20456;-41
2021/07/24 02:50:33;;;;;;;14.03;11.93;;;20.10;72.00;;;;;;4924013;29;20467;-42
2021/07/24 02:53:00;;;;;;;15.80;13.50;;;20.10;72.00;;;;;;4928975;29;20495;-41
2021/07/24 02:55:27;;;;;;;18.77;12.17;;;20.10;72.00;;;;;;4924230;29;20473;-42
2021/07/24 02:57:54;;;;;;;18.73;14.17;;;20.10;72.00;;;;;;4926384;29;20467;-41
2021/07/24 03:00:21;;;;;;;14.17;12.07;;;20.20;72.00;;;;;;4930656;29;20464;-41
2021/07/24 03:02:48;;;;;;;13.57;11.57;;;20.10;71.90;;;;;;4928941;29;20546;-43
2021/07/24 03:05:15;;;;;;;18.60;13.03;;;20.10;71.90;;;;;;4927438;29;21028;-42
2021/07/24 03:07:42;;;;;;;13.87;11.40;;;20.10;71.90;;;;;;4927322;29;20511;-42
2021/07/24 03:10:09;;;;;;;11.80;10.60;;;20.10;71.80;;;;;;4929783;29;20868;-43
2021/07/24 03:12:36;;;;;;;15.47;12.33;;;20.10;71.80;;;;;;4927394;29;20469;-41
2021/07/24 03:15:04;;;;;;;12.93;11.37;;;20.10;71.70;;;;;;4924699;29;20481;-41
2021/07/24 03:17:32;;;;;;;16.57;13.20;;;20.10;71.20;;;;;;4930237;29;20550;-41
2021/07/24 03:19:59;;;;;;;14.67;12.83;;;20.10;71.30;;;;;;4930679;29;21003;-41
2021/07/24 03:22:25;;;;;;;16.43;12.40;;;20.10;71.40;;;;;;4927001;29;20870;-41
2021/07/24 03:24:56;;;;;;;14.10;11.43;;;20.10;71.40;;;;;;4930638;29;20793;-41
2021/07/24 03:27:24;;;;;;;16.00;11.50;;;20.20;71.30;;;;;;4924561;29;20824;-41
2021/07/24 03:29:50;;;;;;;13.77;11.63;;;20.20;71.40;;;;;;4928201;29;20465;-42
2021/07/24 03:32:17;;;;;;;17.70;13.47;;;20.20;71.20;;;;;;4925020;29;20574;-43
2021/07/24 03:34:44;;;;;;;13.93;10.93;;;20.20;71.20;;;;;;4931581;29;20456;-42
2021/07/24 03:37:11;;;;;;;15.33;11.33;;;20.20;71.30;;;;;;4925317;29;20504;-41
2021/07/24 03:39:38;;;;;;;13.57;11.10;;;20.20;71.30;;;;;;4925781;29;20468;-41
2021/07/24 03:42:04;;;;;;;12.70;11.23;;;20.20;71.20;;;;;;4923669;29;20579;-42
2021/07/24 03:44:31;;;;;;;13.50;10.37;;;20.30;70.20;;;;;;4925032;29;20465;-41
2021/07/24 03:46:58;;;;;;;13.80;11.30;;;20.30;70.00;;;;;;4925988;29;20948;-41
2021/07/24 03:49:25;;;;;;;17.53;11.03;;;20.30;69.80;;;;;;4926065;29;20465;-42
2021/07/24 03:51:52;;;;;;;18.93;11.27;;;20.40;69.80;;;;;;4923863;29;20457;-41
2021/07/24 03:54:18;;;;;;;13.60;11.17;;;20.40;69.70;;;;;;4924560;29;20468;-41
2021/07/24 03:56:45;;;;;;;13.67;11.40;;;20.40;69.60;;;;;;4930755;29;20892;-41
2021/07/24 03:59:12;;;;;;;15.27;11.50;;;20.50;69.80;;;;;;4929087;29;20507;-42
2021/07/24 04:01:42;;;;;;;15.20;11.83;;;20.50;70.10;;;;;;4930669;29;20550;-42
2021/07/24 04:04:09;;;;;;;14.50;11.77;;;20.50;70.40;;;;;;4924888;29;20468;-41
2021/07/24 04:06:36;;;;;;;14.30;12.33;;;20.60;70.40;;;;;;4929164;29;20495;-42
2021/07/24 04:09:05;;;;;;;18.20;12.33;;;20.60;70.30;;;;;;4928486;29;20548;-41
2021/07/24 04:11:33;;;;;;;16.23;11.40;;;20.60;70.30;;;;;;4930791;29;20472;-41
2021/07/24 04:14:02;;;;;;;17.50;12.07;;;20.60;70.20;;;;;;4930749;29;20546;-42
2021/07/24 04:16:30;;;;;;;17.23;11.80;;;20.70;69.70;;;;;;4928220;29;20487;-41
2021/07/24 04:19:00;;;;;;;13.97;11.00;;;20.70;69.60;;;;;;4932354;29;20463;-42
2021/07/24 04:21:27;;;;;;;17.53;12.50;;;20.70;69.70;;;;;;4927376;29;21074;-41
2021/07/24 04:23:54;;;;;;;15.60;12.87;;;20.70;69.60;;;;;;4929709;29;20477;-42
2021/07/24 04:26:25;;;;;;;14.30;12.80;;;20.70;69.50;;;;;;4932977;28;20587;-42
2021/07/24 04:28:52;;;;;;;15.50;11.70;;;20.70;69.50;;;;;;4926257;29;20824;-41
2021/07/24 04:31:19;;;;;;;13.00;11.30;;;20.70;69.60;;;;;;4928196;29;20468;-42
2021/07/24 04:33:46;;;;;;;12.90;11.43;;;20.80;69.90;;;;;;4930597;29;20460;-42
2021/07/24 04:36:14;;;;;;;15.70;12.60;;;20.80;70.10;;;;;;4927758;29;20466;-42
2021/07/24 04:38:41;;;;;;;15.03;12.50;;;20.80;69.90;;;;;;4926181;29;20571;-42
2021/07/24 04:41:08;;;;;;;17.83;13.47;;;20.80;69.40;;;;;;4930464;29;21072;-42
2021/07/24 04:43:35;;;;;;;12.87;11.20;;;20.80;70.00;;;;;;4931411;29;20451;-42
2021/07/24 04:46:04;;;;;;;18.33;12.73;;;20.90;70.30;;;;;;4927536;29;20495;-42
2021/07/24 04:48:31;;;;;;;12.70;10.80;;;20.90;70.50;;;;;;4932429;29;20487;-42
2021/07/24 04:50:58;;;;;;;13.83;11.03;;;20.90;70.50;;;;;;4926297;29;20453;-42
2021/07/24 04:53:25;;;;;;;16.03;12.17;;;20.90;70.10;;;;;;4927525;29;20518;-43
2021/07/24 04:55:52;;;;;;;17.80;11.93;;;20.90;69.30;;;;;;4928851;29;20558;-42
2021/07/24 04:58:21;;;;;;;16.17;12.80;;;21.00;68.70;;;;;;4926113;29;20471;-41
2021/07/24 05:00:48;;;;;;;18.07;11.60;;;21.00;68.60;;;;;;4930292;29;20498;-42
2021/07/24 05:03:16;;;;;;;13.17;11.80;;;21.00;68.50;;;;;;4929791;29;20944;-42
2021/07/24 05:05:44;;;;;;;14.17;11.90;;;21.00;68.70;;;;;;4929835;29;20540;-42
2021/07/24 05:08:11;;;;;;;16.37;11.70;;;21.10;68.90;;;;;;4930335;29;20467;-42
2021/07/24 05:10:39;;;;;;;14.50;12.00;;;21.10;68.90;;;;;;4928027;29;20461;-42
2021/07/24 05:13:06;;;;;;;14.40;12.20;;;21.10;68.90;;;;;;4930038;29;20491;-43
2021/07/24 05:15:33;;;;;;;16.00;11.60;;;21.20;69.50;;;;;;4927418;29;20479;-42
2021/07/24 05:18:00;;;;;;;16.10;12.20;;;21.20;69.00;;;;;;4929790;29;21009;-41
2021/07/24 05:20:29;;;;;;;15.43;11.60;;;21.20;68.10;;;;;;4931104;29;20694;-42
2021/07/24 05:22:57;;;;;;;12.40;11.10;;;21.20;68.30;;;;;;4925811;28;20473;-42
2021/07/24 05:25:24;;;;;;;16.53;11.87;;;21.20;69.30;;;;;;4928955;29;20458;-41
2021/07/24 05:27:51;;;;;;;15.23;11.03;;;21.20;69.50;;;;;;4927112;29;20582;-42
2021/07/24 05:30:18;;;;;;;13.77;11.10;;;21.30;69.60;;;;;;4927070;29;20487;-41
2021/07/24 05:32:45;;;;;;;13.03;11.33;;;21.30;69.60;;;;;;4923570;29;20470;-42
2021/07/24 05:35:11;;;;;;;13.47;11.83;;;21.30;70.00;;;;;;4924898;29;20468;-42
2021/07/24 05:37:38;;;;;;;16.13;11.47;;;21.30;70.00;;;;;;4928020;29;20503;-41
2021/07/24 05:40:05;;;;;;;17.67;12.10;;;21.40;69.30;;;;;;4926920;29;20478;-42
2021/07/24 05:42:32;;;;;;;14.83;11.97;;;21.50;67.40;;;;;;4933795;29;21043;-42
2021/07/24 05:44:59;;;;;;;18.40;12.07;;;21.50;67.60;;;;;;4932343;29;20472;-43
2021/07/24 05:47:26;;;;;;;13.10;11.80;;;21.60;67.40;;;;;;4925569;29;20606;-42
2021/07/24 05:49:53;;;;;;;15.00;11.37;;;21.70;67.20;;;;;;4925035;29;20869;-42
2021/07/24 05:52:20;;;;;;;16.77;11.37;;;21.70;67.00;;;;;;4927943;29;20464;-41
2021/07/24 05:54:48;;;;;;;14.57;11.40;;;21.80;66.80;;;;;;4925216;29;20571;-42
2021/07/24 05:57:15;;;;;;;14.30;12.63;;;21.90;66.40;;;;;;4928808;29;20472;-42
2021/07/24 05:59:43;;;;;;;16.07;12.37;;;21.90;66.40;;;;;;4928573;28;20515;-42
2021/07/24 06:02:14;;;;;;;13.87;11.73;;;21.90;66.60;;;;;;4933174;29;20523;-42
2021/07/24 06:04:43;;;;;;;14.57;12.27;;;21.90;66.30;;;;;;4923617;29;20882;-42
2021/07/24 06:07:10;;;;;;;16.53;13.33;;;22.00;66.10;;;;;;4928137;29;20492;-41
2021/07/24 06:09:38;;;;;;;13.87;12.33;;;22.00;66.10;;;;;;4925704;29;20460;-41
2021/07/24 06:12:06;;;;;;;12.67;11.37;;;22.00;66.20;;;;;;4924803;29;21037;-41
2021/07/24 06:14:33;;;;;;;15.60;12.37;;;21.90;66.30;;;;;;4930610;29;20483;-42
2021/07/24 06:17:00;;;;;;;15.63;12.50;;;21.90;66.40;;;;;;4923825;29;20457;-42
2021/07/24 06:19:27;;;;;;;15.87;12.87;;;22.00;66.10;;;;;;4928506;29;20520;-42
2021/07/24 06:21:54;;;;;;;17.80;13.37;;;22.00;66.30;;;;;;4924626;29;20469;-41
2021/07/24 06:24:21;;;;;;;15.20;12.67;;;22.00;66.30;;;;;;4926932;29;20478;-41
2021/07/24 06:26:52;;;;;;;16.40;13.10;;;22.10;66.00;;;;;;4928063;29;21084;-42
2021/07/24 06:29:19;;;;;;;14.23;12.63;;;22.10;65.90;;;;;;4924772;28;20456;-41
2021/07/24 06:31:46;;;;;;;13.23;11.53;;;22.00;66.10;;;;;;4931976;29;20584;-42
2021/07/24 06:34:13;;;;;;;13.60;12.03;;;22.10;65.90;;;;;;4929468;29;20515;-42
2021/07/24 06:36:39;;;;;;;17.50;13.77;;;22.10;66.00;;;;;;4927699;29;20459;-42
2021/07/24 06:39:06;;;;;;;14.00;12.60;;;22.10;65.90;;;;;;4926788;29;20461;-41
2021/07/24 06:41:38;;;;;;;13.73;11.47;;;22.10;66.10;;;;;;4928306;29;20507;-42
2021/07/24 06:44:05;;;;;;;15.10;12.73;;;22.10;66.20;;;;;;4924828;29;20548;-42
2021/07/24 06:46:32;;;;;;;17.10;12.70;;;22.20;65.90;;;;;;4931540;29;20499;-42
2021/07/24 06:48:59;;;;;;;16.23;12.70;;;22.20;65.70;;;;;;4927557;29;20547;-42
2021/07/24 06:51:26;;;;;;;17.40;13.30;;;22.20;65.80;;;;;;4925479;29;20492;-42
2021/07/24 06:53:53;;;;;;;15.77;12.10;;;22.30;66.10;;;;;;4926811;29;20519;-42
2021/07/24 06:56:22;;;;;;;16.73;12.90;;;22.30;66.20;;;;;;4927025;28;20571;-42
2021/07/24 06:58:51;;;;;;;16.70;12.90;;;22.40;65.80;;;;;;4922196;29;20451;-42
2021/07/24 07:01:17;;;;;;;15.30;13.63;;;22.40;65.90;;;;;;4927176;29;20474;-41
2021/07/24 07:03:45;;;;;;;14.90;12.13;;;22.50;65.70;;;;;;4928320;29;20496;-42
2021/07/24 07:06:13;;;;;;;17.30;12.33;;;22.50;65.80;;;;;;4930819;29;20464;-42
2021/07/24 07:08:40;;;;;;;20.70;12.70;;;22.50;65.90;;;;;;4929444;29;20490;-42
2021/07/24 07:11:08;;;;;;;14.00;11.67;;;22.50;65.80;;;;;;4925722;29;20511;-41
2021/07/24 07:13:35;;;;;;;13.70;11.53;;;22.50;65.80;;;;;;4926650;29;20502;-42
2021/07/24 07:16:07;;;;;;;17.17;13.07;;;22.50;65.90;;;;;;4922306;29;20503;-43
2021/07/24 07:18:36;;;;;;;14.10;11.97;;;22.60;65.70;;;;;;4924814;29;20496;-41
2021/07/24 07:21:04;;;;;;;14.47;12.30;;;22.60;65.80;;;;;;4929518;29;20488;-41
2021/07/24 07:23:31;;;;;;;14.10;12.50;;;22.70;65.40;;;;;;4926427;29;21019;-42
2021/07/24 07:25:58;;;;;;;19.70;12.27;;;22.70;65.20;;;;;;4930083;29;20480;-41
2021/07/24 07:28:24;;;;;;;14.83;11.80;;;22.70;65.20;;;;;;4929189;29;20497;-41
2021/07/24 07:30:51;;;;;;;14.93;12.20;;;22.80;65.10;;;;;;4924444;29;20449;-41
2021/07/24 07:33:20;;;;;;;17.90;12.90;;;22.90;65.00;;;;;;4927281;29;20468;-42
2021/07/24 07:35:47;;;;;;;15.70;13.80;;;22.90;65.00;;;;;;4926608;29;20524;-42
2021/07/24 07:38:13;;;;;;;16.60;12.80;;;22.90;64.70;;;;;;4922489;29;20477;-42
2021/07/24 07:40:40;;;;;;;15.37;12.40;;;23.00;64.60;;;;;;4923637;29;20499;-41
2021/07/24 07:43:11;;;;;;;14.57;12.30;;;23.10;64.80;;;;;;4924250;29;20452;-42
2021/07/24 07:45:38;;;;;;;17.37;13.47;;;23.10;64.80;;;;;;4924009;29;20503;-42
2021/07/24 07:48:05;;;;;;;57.13;19.20;;;23.20;64.70;;;;;;4929069;29;20574;-41
2021/07/24 07:50:33;;;;;;;28.13;14.60;;;23.30;64.70;;;;;;4925143;29;20505;-42
2021/07/24 07:53:00;;;;;;;20.10;13.80;;;23.30;64.60;;;;;;4925393;29;20550;-42
2021/07/24 07:55:27;;;;;;;15.70;14.03;;;23.40;64.50;;;;;;4924518;29;20467;-42
2021/07/24 07:57:53;;;;;;;19.03;12.57;;;23.50;64.50;;;;;;4925823;29;20499;-42
2021/07/24 08:00:21;;;;;;;14.90;12.57;;;23.50;64.50;;;;;;4923287;29;20948;-41
2021/07/24 08:02:54;;;;;;;19.73;13.33;;;23.60;64.40;;;;;;4928526;28;20549;-42
2021/07/24 08:05:22;;;;;;;17.13;12.70;;;23.70;64.40;;;;;;4929377;29;20526;-43
2021/07/24 08:07:49;;;;;;;21.43;12.87;;;23.70;64.50;;;;;;4925490;29;20888;-43
2021/07/24 08:10:16;;;;;;;17.33;12.27;;;23.80;64.50;;;;;;4925743;29;20546;-41
2021/07/24 08:12:43;;;;;;;14.30;11.40;;;23.80;64.30;;;;;;4926221;29;20566;-42
2021/07/24 08:15:10;;;;;;;33.03;15.23;;;23.90;64.00;;;;;;4922584;29;20490;-42
2021/07/24 08:17:37;;;;;;;19.37;12.53;;;23.90;63.90;;;;;;4925433;29;20467;-43
2021/07/24 08:20:07;;;;;;;18.50;12.40;;;24.00;64.00;;;;;;4932401;29;20582;-41
2021/07/24 08:22:35;;;;;;;16.33;13.33;;;24.00;63.90;;;;;;4927099;29;20455;-42
2021/07/24 08:25:03;;;;;;;13.10;11.13;;;24.00;64.00;;;;;;4929595;29;21130;-42
2021/07/24 08:27:34;;;;;;;18.63;12.80;;;24.00;63.60;;;;;;4929644;29;20483;-42
2021/07/24 08:30:02;;;;;;;15.67;12.87;;;24.00;63.50;;;;;;4924705;29;20468;-43
2021/07/24 08:32:29;;;;;;;17.07;12.20;;;24.00;63.60;;;;;;4926963;29;21699;-42
2021/07/24 08:34:56;;;;;;;15.73;12.27;;;24.00;63.80;;;;;;4924543;29;20530;-42
2021/07/24 08:37:23;;;;;;;15.20;12.33;;;23.90;63.70;;;;;;4928744;29;20550;-43
2021/07/24 08:39:50;;;;;;;17.90;12.73;;;24.00;63.90;;;;;;4927395;29;20467;-42
2021/07/24 08:42:36;;;;;;;15.50;12.90;;;23.90;64.00;;;;;;4927686;29;20446;-42
2021/07/24 08:45:04;;;;;;;17.33;13.20;;;23.90;64.10;;;;;;4934011;29;20459;-44
2021/07/24 08:47:31;;;;;;;18.60;13.20;;;23.80;63.80;;;;;;4927205;29;20503;-43
2021/07/24 08:50:01;;;;;;;18.10;13.67;;;23.80;63.70;;;;;;4931629;29;20462;-41
2021/07/24 08:52:30;;;;;;;18.07;12.67;;;23.80;63.90;;;;;;4930591;29;20451;-43
2021/07/24 08:54:58;;;;;;;40.97;16.97;;;23.80;63.90;;;;;;4928157;29;20459;-42
2021/07/24 08:57:32;;;;;;;18.33;12.50;;;23.80;64.30;;;;;;4936043;29;20838;-42
2021/07/24 09:00:04;;;;;;;17.47;12.50;;;23.80;64.50;;;;;;4924548;29;20527;-42
2021/07/24 09:02:35;;;;;;;16.57;12.57;;;23.80;64.50;;;;;;4934331;29;20486;-41
2021/07/24 09:05:05;;;;;;;16.43;12.20;;;23.80;64.60;;;;;;4927458;29;20511;-42
2021/07/24 09:07:35;;;;;;;15.77;12.20;;;23.80;65.20;;;;;;4930097;29;20525;-41
2021/07/24 09:10:02;;;;;;;13.23;11.83;;;23.90;66.10;;;;;;4929303;29;20451;-43
2021/07/24 09:12:29;;;;;;;13.67;12.20;;;23.90;65.70;;;;;;4924619;29;20443;-42
2021/07/24 09:14:57;;;;;;;13.30;11.90;;;23.90;65.10;;;;;;4926072;29;20466;-41
2021/07/24 09:17:24;;;;;;;15.43;11.67;;;24.00;64.80;;;;;;4923188;29;20890;-42
2021/07/24 09:19:52;;;;;;;16.23;11.77;;;24.00;64.50;;;;;;4925553;29;20466;-41
2021/07/24 09:22:33;;;;;;;16.73;13.70;;;24.00;64.40;;;;;;4928302;29;20459;-42
2021/07/24 09:25:04;;;;;;;16.50;12.80;;;23.90;64.50;;;;;;4935575;29;20455;-42
2021/07/24 09:27:31;;;;;;;16.20;12.50;;;23.90;64.70;;;;;;4927671;29;20494;-42
2021/07/24 09:29:58;;;;;;;15.40;11.60;;;23.90;66.40;;;;;;4928685;29;21210;-42
2021/07/24 09:32:25;;;;;;;16.90;12.97;;;23.80;67.00;;;;;;4933145;29;20912;-42
2021/07/24 09:34:52;;;;;;;13.30;11.67;;;23.80;67.20;;;;;;4930005;29;21591;-42
2021/07/24 09:37:29;;;;;;;14.77;12.30;;;23.80;67.10;;;;;;4930721;29;21218;-42
2021/07/24 09:40:17;;;;;;;15.77;11.43;;;23.90;66.70;;;;;;4926361;29;20455;-42
2021/07/24 09:42:46;;;;;;;15.17;11.57;;;24.10;66.80;;;;;;4923236;29;20569;-42
2021/07/24 09:45:13;;;;;;;16.97;11.63;;;24.40;64.90;;;;;;4924258;29;20470;-42
2021/07/24 09:47:39;;;;;;;20.70;13.30;;;24.60;64.20;;;;;;4928492;29;20483;-43
2021/07/24 09:50:16;;;;;;;12.10;10.80;;;24.80;63.80;;;;;;4924846;29;20459;-42
2021/07/24 09:52:49;;;;;;;16.00;11.93;;;25.00;63.10;;;;;;4931082;29;20486;-42
2021/07/24 09:55:24;;;;;;;59.17;16.43;;;25.10;62.70;;;;;;4924436;29;20814;-42
2021/07/24 09:57:55;;;;;;;13.10;11.07;;;25.30;62.50;;;;;;4926436;29;20529;-43
2021/07/24 10:00:30;;;;;;;14.37;11.20;;;25.50;61.60;;;;;;4927791;29;20465;-43
2021/07/24 10:03:05;;;;;;;11.83;10.47;;;25.50;61.20;;;;;;4928323;29;20459;-42
2021/07/24 10:05:39;;;;;;;13.70;10.67;;;25.60;61.40;;;;;;4927902;29;20499;-43
2021/07/24 10:08:09;;;;;;;14.43;11.30;;;25.90;61.20;;;;;;4932780;29;20546;-42
2021/07/24 10:10:39;;;;;;;11.90;10.70;;;26.20;60.70;;;;;;4928231;29;20479;-42
2021/07/24 10:13:11;;;;;;;14.50;11.50;;;26.50;59.90;;;;;;4925027;29;20992;-42
2021/07/24 10:15:43;;;;;;;13.33;11.67;;;26.70;59.20;;;;;;4924075;29;20487;-42
2021/07/24 10:18:12;;;;;;;12.87;11.57;;;26.80;58.80;;;;;;4925458;29;20464;-42
2021/07/24 10:20:43;;;;;;;12.70;10.20;;;26.90;58.60;;;;;;4933741;29;20468;-43
2021/07/24 10:23:11;;;;;;;14.43;10.33;;;27.10;58.50;;;;;;4930150;29;20540;-42
2021/07/24 10:25:52;;;;;;;13.83;10.63;;;27.50;57.90;;;;;;4928744;29;20456;-42
2021/07/24 10:28:28;;;;;;;10.03;9.03;;;28.00;56.90;;;;;;4929613;29;20275;-42
2021/07/24 10:30:57;;;;;;;10.70;9.00;;;28.30;54.70;;;;;;4925985;29;21092;-42
2021/07/24 10:33:25;;;;;;;12.13;9.50;;;28.60;54.00;;;;;;4930101;29;20263;-42
2021/07/24 10:36:10;;;;;;;10.60;8.70;;;28.60;55.00;;;;;;4926273;29;20214;-42
2021/07/24 10:38:37;;;;;;;10.07;8.00;;;28.50;55.20;;;;;;4921815;29;20574;-42
2021/07/24 10:41:21;;;;;;;10.20;8.67;;;28.40;55.10;;;;;;4932454;29;20690;-42
2021/07/24 10:44:17;;;;;;;11.53;8.80;;;28.30;54.90;;;;;;4928772;29;20300;-42
2021/07/24 10:46:44;;;;;;;12.97;9.10;;;28.10;55.80;;;;;;4928847;29;20210;-42
2021/07/24 10:49:22;;;;;;;11.10;9.90;;;28.00;56.70;;;;;;4928147;29;20595;-42
2021/07/24 10:52:06;;;;;;;11.13;9.20;;;27.90;56.10;;;;;;4926978;29;20207;-42
2021/07/24 10:54:53;;;;;;;11.40;10.30;;;27.70;56.80;;;;;;4927040;29;20800;-42
2021/07/24 10:57:43;;;;;;;14.30;9.87;;;27.60;57.00;;;;;;4921307;29;20279;-42
2021/07/24 11:00:18;;;;;;;13.13;10.53;;;27.30;57.40;;;;;;4922329;29;20460;-42
2021/07/24 11:02:47;;;;;;;12.30;9.67;;;27.10;58.00;;;;;;4931099;28;20474;-42
2021/07/24 11:05:28;;;;;;;11.70;9.47;;;26.90;58.30;;;;;;4930508;29;20945;-43
2021/07/24 11:07:56;;;;;;;11.43;10.30;;;26.80;58.40;;;;;;4928938;29;20602;-42
2021/07/24 11:10:23;;;;;;;14.70;10.70;;;26.70;58.60;;;;;;4926932;28;20456;-42
2021/07/24 11:12:50;;;;;;;12.30;10.33;;;26.60;58.90;;;;;;4925523;29;20479;-42
2021/07/24 11:15:20;;;;;;;12.20;10.40;;;26.70;59.60;;;;;;4924613;29;20455;-42
2021/07/24 11:18:24;;;;;;;12.37;10.30;;;26.60;59.10;;;;;;4923882;29;20468;-42
2021/07/24 11:20:52;;;;;;;14.60;10.90;;;26.60;59.30;;;;;;4925747;29;20458;-43
2021/07/24 11:23:20;;;;;;;11.23;10.13;;;26.70;59.40;;;;;;4922757;29;20535;-43
2021/07/24 11:25:47;;;;;;;13.93;11.03;;;26.70;59.20;;;;;;4928234;29;20832;-42
2021/07/24 11:28:22;;;;;;;14.97;10.30;;;26.70;59.60;;;;;;4930826;29;20487;-42
2021/07/24 11:31:02;;;;;;;12.87;10.63;;;26.60;60.00;;;;;;4927495;29;20464;-43
2021/07/24 11:33:31;;;;;;;17.13;11.37;;;26.50;59.90;;;;;;4926549;29;20550;-41
2021/07/24 11:36:02;;;;;;;13.20;11.47;;;26.30;60.10;;;;;;4923988;29;20879;-42
2021/07/24 11:38:29;;;;;;;13.60;10.70;;;26.20;60.40;;;;;;4927387;29;20478;-42
2021/07/24 11:40:58;;;;;;;16.47;11.03;;;26.10;60.80;;;;;;4930708;29;20554;-41
2021/07/24 11:43:25;;;;;;;11.80;10.60;;;26.10;61.20;;;;;;4923411;29;20464;-42
2021/07/24 11:46:00;;;;;;;12.70;11.40;;;26.00;61.50;;;;;;4931737;29;20485;-42
2021/07/24 11:48:28;;;;;;;13.70;11.50;;;26.00;61.60;;;;;;4930875;29;20538;-42
2021/07/24 11:51:03;;;;;;;14.93;11.67;;;25.90;61.90;;;;;;4923479;29;20456;-42
2021/07/24 11:53:30;;;;;;;12.50;11.10;;;25.90;62.70;;;;;;4927071;29;20454;-42
2021/07/24 11:55:58;;;;;;;14.27;11.57;;;25.80;63.30;;;;;;4929714;29;20463;-43
2021/07/24 11:58:25;;;;;;;15.17;11.10;;;25.80;64.60;;;;;;4924503;28;20472;-42
2021/07/24 12:00:56;;;;;;;13.63;11.57;;;25.60;65.40;;;;;;4930114;29;20469;-42
2021/07/24 12:03:30;;;;;;;15.87;11.50;;;25.50;66.20;;;;;;4927060;29;20490;-41
2021/07/24 12:06:12;;;;;;;18.43;12.80;;;25.40;66.70;;;;;;4930850;29;20451;-43
2021/07/24 12:08:41;;;;;;;12.17;10.87;;;25.20;67.50;;;;;;4925701;29;20513;-42
2021/07/24 12:11:15;;;;;;;14.83;12.90;;;25.10;69.90;;;;;;4928769;29;20547;-42
2021/07/24 12:13:44;;;;;;;14.67;11.87;;;25.10;71.00;;;;;;4925163;29;20886;-42
2021/07/24 12:16:13;;;;;;;21.30;13.60;;;25.00;72.40;;;;;;4926580;29;20485;-42
2021/07/24 12:18:47;;;;;;;19.50;13.20;;;24.70;74.00;;;;;;4929656;29;20463;-41
2021/07/24 12:21:20;;;;;;;17.13;10.80;;;24.40;75.50;;;;;;4932269;29;20991;-42
2021/07/24 12:23:56;;;;;;;18.20;12.80;;;24.00;75.40;;;;;;4929444;29;20563;-41
2021/07/24 12:26:34;;;;;;;16.43;12.20;;;23.70;77.00;;;;;;4930933;29;20459;-42
2021/07/24 12:29:21;;;;;;;16.93;13.47;;;23.50;78.10;;;;;;4929694;29;20498;-42
2021/07/24 12:31:50;;;;;;;13.20;11.53;;;23.30;79.10;;;;;;4928066;29;20458;-43
2021/07/24 12:34:22;;;;;;;15.17;12.37;;;23.10;80.00;;;;;;4937441;29;20514;-42
2021/07/24 12:36:57;;;;;;;14.07;11.70;;;23.00;79.80;;;;;;4932545;29;20872;-41
2021/07/24 12:39:25;;;;;;;19.23;13.10;;;22.90;80.90;;;;;;4931047;29;20895;-40
2021/07/24 12:42:06;;;;;;;14.37;11.50;;;22.90;81.60;;;;;;4930989;29;20564;-42